Concerto — JJ3855 — position and weather

sailwx.info

Track history (hours):
 
Tides and Currents Weather Stations Pressure Air Temp Water Temp Dewpoint Dewpoint Depression Visibility Wind Speed Wind Dir Waves Ship Positions

Concerto

Last reported at 2015-May-28 15:29 UTC. Time now 2015-May-28 16:14 UTC.
Position N 34°41' E 135°11'.

Length 74 m; draft 3 m.

Type: Passenger vessel. MMSI: 431000448.

Date/timePositionNaut miles runAvg speedWind from/ knotsBaromVisibWave heightAir tempDewpointWater temp
2015-May-28 15:29N 34°41' E 135°11'0 0.0
2015-May-28 14:29N 34°41' E 135°11'0 0.0
2015-May-28 13:29N 34°41' E 135°11'0 0.0
2015-May-28 12:23N 34°41' E 135°11'3 3.5
2015-May-28 11:33N 34°38' E 135°11'2 1.9
2015-May-28 10:33N 34°40' E 135°11'1 0.6
2015-May-28 09:33N 34°39' E 135°11'1 0.7
2015-May-28 08:33N 34°39' E 135°11'2 2.1
2015-May-28 07:30N 34°41' E 135°11'3 3.5
2015-May-28 06:33N 34°38' E 135°09'3 3.3
2015-May-28 05:33N 34°41' E 135°11'1 0.6
2015-May-28 04:33N 34°40' E 135°12'3 2.9
2015-May-28 03:33N 34°38' E 135°09'3 2.3
2015-May-28 02:11N 34°41' E 135°11'0 0.0
2015-May-28 01:29N 34°41' E 135°11'0 0.0
2015-May-28 00:29N 34°41' E 135°11'0 0.0
2015-May-27 23:29N 34°41' E 135°11'0 0.0
2015-May-27 22:29N 34°41' E 135°11'0 0.0
2015-May-27 21:29N 34°41' E 135°11'0 0.0
2015-May-27 20:29N 34°41' E 135°11'0 0.0
2015-May-27 19:29N 34°41' E 135°11'0 0.0
2015-May-27 18:29N 34°41' E 135°11'0 0.0
2015-May-27 17:23N 34°41' E 135°11'0 0.0
2015-May-27 16:29N 34°41' E 135°11'0 0.0
2015-May-27 15:29N 34°41' E 135°11'0 0.0
2015-May-27 14:23N 34°41' E 135°11'0 0.0
2015-May-27 13:29N 34°41' E 135°11'0 0.0
2015-May-27 12:17N 34°41' E 135°11'3 3.9
2015-May-27 11:33N 34°38' E 135°11'2 1.9
2015-May-27 10:33N 34°40' E 135°11'1 0.7
2015-May-27 09:33N 34°39' E 135°11'1 0.8
2015-May-27 08:33N 34°39' E 135°11'2 2.1
2015-May-27 07:31N 34°41' E 135°11'3 3.4
2015-May-27 06:33N 34°38' E 135°09'3 3.3
2015-May-27 05:33N 34°41' E 135°11'0 0.4
2015-May-27 04:33N 34°40' E 135°11'3 3.1
2015-May-27 03:33N 34°38' E 135°09'3 3.3
2015-May-27 02:33N 34°41' E 135°11'0 0.0
2015-May-26 12:28N 34°41' E 135°11'3 3.1
2015-May-26 11:33N 34°38' E 135°11'2 2.1
2015-May-26 10:33N 34°40' E 135°11'1 0.8
2015-May-26 09:33N 34°39' E 135°11'1 0.7
2015-May-26 08:33N 34°39' E 135°11'2 2.0
2015-May-26 07:30N 34°41' E 135°11'3 3.4
2015-May-26 06:34N 34°38' E 135°09'3 2.8
2015-May-26 05:25N 34°41' E 135°11'1 1.0
2015-May-26 04:33N 34°40' E 135°12'3 2.8
2015-May-26 03:33N 34°38' E 135°10'3 0.4
2015-May-25 20:28N 34°41' E 135°11'0 0.0
2015-May-25 19:28N 34°41' E 135°11'0 0.0
2015-May-25 18:28N 34°41' E 135°11'0 0.0
2015-May-25 17:28N 34°41' E 135°11'0 0.0
2015-May-25 16:28N 34°41' E 135°11'0 0.0
2015-May-25 15:28N 34°41' E 135°11'0 0.0
2015-May-25 14:28N 34°41' E 135°11'0 0.0
2015-May-25 13:28N 34°41' E 135°11'0 0.0
2015-May-25 12:28N 34°41' E 135°11'3 3.2
2015-May-25 11:33N 34°38' E 135°11'2 2.0
2015-May-25 10:33N 34°40' E 135°11'0 0.4
2015-May-25 09:33N 34°39' E 135°11'1 1.1
2015-May-25 08:33N 34°39' E 135°11'2 2.1
2015-May-25 07:28N 34°41' E 135°11'3 3.6
2015-May-25 06:33N 34°38' E 135°09'3 3.3
2015-May-25 05:33N 34°41' E 135°11'0 0.4
2015-May-25 04:33N 34°40' E 135°11'3 3.4
2015-May-25 03:33N 34°38' E 135°09'1 0.1
2015-May-24 11:33N 34°38' E 135°11'2 2.0
2015-May-24 10:33N 34°40' E 135°11'1 0.7
2015-May-24 09:33N 34°39' E 135°11'1 0.8
2015-May-24 08:33N 34°39' E 135°11'2 2.1
2015-May-24 07:30N 34°41' E 135°11'3 3.4
2015-May-24 06:33N 34°38' E 135°09'3 3.2
2015-May-24 05:33N 34°41' E 135°11'0 0.3
2015-May-24 04:33N 34°41' E 135°11'3 3.4
2015-May-24 03:33N 34°38' E 135°09'1 0.1
2015-May-23 11:34N 34°38' E 135°11'2 1.8
2015-May-23 10:34N 34°40' E 135°11'0 0.1
2015-May-23 09:34N 34°40' E 135°11'1 1.1
2015-May-23 08:33N 34°39' E 135°11'2 2.1
2015-May-23 07:29N 34°41' E 135°11'3 3.7
2015-May-23 06:33N 34°38' E 135°09'3 3.4
2015-May-23 05:33N 34°41' E 135°11'0 0.4
2015-May-23 04:33N 34°40' E 135°11'3 3.1
2015-May-23 03:33N 34°38' E 135°09'3 3.1
2015-May-23 02:29N 34°41' E 135°11'0 0.0
2015-May-23 01:23N 34°41' E 135°11'0 0.0
2015-May-23 00:29N 34°41' E 135°11'0 0.0
2015-May-22 23:23N 34°41' E 135°11'0 0.0
2015-May-22 22:29N 34°41' E 135°11'0 0.0
2015-May-22 21:29N 34°41' E 135°11'0 0.0
2015-May-22 20:17N 34°41' E 135°11'0 0.0
2015-May-22 19:29N 34°41' E 135°11'0 0.0
2015-May-22 18:29N 34°41' E 135°11'0 0.0
2015-May-22 17:23N 34°41' E 135°11'0 0.0
2015-May-22 16:29N 34°41' E 135°11'0 0.0
2015-May-22 15:23N 34°41' E 135°11'0 0.0
2015-May-22 14:23N 34°41' E 135°11'0 0.0
2015-May-22 13:29N 34°41' E 135°11'0 0.0
2015-May-22 12:29N 34°41' E 135°11'3 3.1
2015-May-22 11:33N 34°38' E 135°10'2 2.0
2015-May-22 10:33N 34°40' E 135°11'1 0.8
2015-May-22 09:33N 34°39' E 135°11'1 0.6
2015-May-22 08:33N 34°39' E 135°11'2 2.1
2015-May-22 07:31N 34°41' E 135°11'3 3.2
2015-May-22 06:33N 34°38' E 135°10'3 3.1
2015-May-22 05:32N 34°41' E 135°11'1 0.7
2015-May-22 04:33N 34°40' E 135°12'2 2.4
2015-May-22 03:33N 34°38' E 135°10'3 2.5
2015-May-22 02:30N 34°41' E 135°11'0 0.0
2015-May-22 01:30N 34°41' E 135°11'0 0.0
2015-May-22 00:24N 34°41' E 135°11'0 0.0
2015-May-21 23:30N 34°41' E 135°11'0 0.0
2015-May-21 22:30N 34°41' E 135°11'0 0.0
2015-May-21 21:12N 34°41' E 135°11'0 0.0
2015-May-21 20:30N 34°41' E 135°11'0 0.0
2015-May-21 19:30N 34°41' E 135°11'0 0.0
2015-May-21 18:30N 34°41' E 135°11'0 0.0
2015-May-21 17:30N 34°41' E 135°11'0 0.0
2015-May-21 16:30N 34°41' E 135°11'0 0.0
2015-May-21 15:30N 34°41' E 135°11'0 0.0
2015-May-21 14:30N 34°41' E 135°11'0 0.0
2015-May-21 13:30N 34°41' E 135°11'0 0.0
2015-May-21 12:30N 34°41' E 135°11'3 3.2
2015-May-21 11:33N 34°38' E 135°11'2 2.1
2015-May-21 10:33N 34°40' E 135°11'1 0.8
2015-May-21 09:33N 34°39' E 135°11'1 0.7
2015-May-21 08:34N 34°39' E 135°11'2 2.2
2015-May-21 07:31N 34°41' E 135°11'3 3.4
2015-May-21 06:33N 34°38' E 135°09'3 3.3
2015-May-21 05:33N 34°41' E 135°11'0 0.4
2015-May-21 04:33N 34°40' E 135°11'3 2.9
2015-May-21 03:33N 34°38' E 135°09'3 2.9
2015-May-21 02:32N 34°41' E 135°11'0 0.0
2015-May-21 01:32N 34°41' E 135°11'0 0.0
2015-May-21 00:32N 34°41' E 135°11'0 0.0
2015-May-20 23:26N 34°41' E 135°11'0 0.0
2015-May-20 22:32N 34°41' E 135°11'0 0.0
2015-May-20 21:32N 34°41' E 135°11'0 0.0
2015-May-20 20:32N 34°41' E 135°11'0 0.0
2015-May-20 19:32N 34°41' E 135°11'0 0.0
2015-May-20 18:32N 34°41' E 135°11'0 0.0
2015-May-20 17:32N 34°41' E 135°11'0 0.0
2015-May-20 16:26N 34°41' E 135°11'0 0.0
2015-May-20 15:32N 34°41' E 135°11'0 0.0
2015-May-20 14:32N 34°41' E 135°11'0 0.0
2015-May-20 13:32N 34°41' E 135°11'0 0.0
2015-May-20 12:32N 34°41' E 135°11'3 3.2
2015-May-20 11:33N 34°38' E 135°10'2 2.1
2015-May-20 10:33N 34°40' E 135°11'0 0.5
2015-May-20 09:33N 34°39' E 135°11'1 1.0
2015-May-20 08:33N 34°38' E 135°11'2 2.3
2015-May-20 07:32N 34°41' E 135°11'3 3.0
2015-May-20 06:33N 34°38' E 135°10'3 2.7
2015-May-20 05:29N 34°41' E 135°11'0 0.5
2015-May-20 04:33N 34°40' E 135°11'3 2.7
2015-May-20 03:33N 34°38' E 135°10'1 0.1
2015-May-19 11:33N 34°38' E 135°11'2 1.7
2015-May-19 10:33N 34°40' E 135°11'0 0.4
2015-May-19 09:33N 34°39' E 135°11'1 1.1
2015-May-19 08:33N 34°39' E 135°11'2 2.0
2015-May-19 07:22N 34°41' E 135°11'3 3.8
2015-May-19 06:33N 34°38' E 135°09'3 3.2
2015-May-19 05:33N 34°41' E 135°11'1 0.5
2015-May-19 04:32N 34°40' E 135°11'3 3.1
2015-May-19 03:33N 34°38' E 135°09'  
Track history (hours):
 
Tides and Currents Weather Stations Pressure Air Temp Water Temp Dewpoint Dewpoint Depression Visibility Wind Speed Wind Dir Waves Ship Positions

Concerto

Last reported at 2015-May-28 15:29 UTC. Time now 2015-May-28 16:14 UTC.
Position N 34°41' E 135°11'.

Length 74 m; draft 3 m.

Type: Passenger vessel. MMSI: 431000448.

Date/timePositionNaut miles runAvg speedWind from/ knotsBaromVisibWave heightAir tempDewpointWater temp
2015-May-28 15:29N 34°41' E 135°11'0 0.0
2015-May-28 14:29N 34°41' E 135°11'0 0.0
2015-May-28 13:29N 34°41' E 135°11'0 0.0
2015-May-28 12:23N 34°41' E 135°11'3 3.5
2015-May-28 11:33N 34°38' E 135°11'2 1.9
2015-May-28 10:33N 34°40' E 135°11'1 0.6
2015-May-28 09:33N 34°39' E 135°11'1 0.7
2015-May-28 08:33N 34°39' E 135°11'2 2.1
2015-May-28 07:30N 34°41' E 135°11'3 3.5
2015-May-28 06:33N 34°38' E 135°09'3 3.3
2015-May-28 05:33N 34°41' E 135°11'1 0.6
2015-May-28 04:33N 34°40' E 135°12'3 2.9
2015-May-28 03:33N 34°38' E 135°09'3 2.3
2015-May-28 02:11N 34°41' E 135°11'0 0.0
2015-May-28 01:29N 34°41' E 135°11'0 0.0
2015-May-28 00:29N 34°41' E 135°11'0 0.0
2015-May-27 23:29N 34°41' E 135°11'0 0.0
2015-May-27 22:29N 34°41' E 135°11'0 0.0
2015-May-27 21:29N 34°41' E 135°11'0 0.0
2015-May-27 20:29N 34°41' E 135°11'0 0.0
2015-May-27 19:29N 34°41' E 135°11'0 0.0
2015-May-27 18:29N 34°41' E 135°11'0 0.0
2015-May-27 17:23N 34°41' E 135°11'0 0.0
2015-May-27 16:29N 34°41' E 135°11'0 0.0
2015-May-27 15:29N 34°41' E 135°11'0 0.0
2015-May-27 14:23N 34°41' E 135°11'0 0.0
2015-May-27 13:29N 34°41' E 135°11'0 0.0
2015-May-27 12:17N 34°41' E 135°11'3 3.9
2015-May-27 11:33N 34°38' E 135°11'2 1.9
2015-May-27 10:33N 34°40' E 135°11'1 0.7
2015-May-27 09:33N 34°39' E 135°11'1 0.8
2015-May-27 08:33N 34°39' E 135°11'2 2.1
2015-May-27 07:31N 34°41' E 135°11'3 3.4
2015-May-27 06:33N 34°38' E 135°09'3 3.3
2015-May-27 05:33N 34°41' E 135°11'0 0.4
2015-May-27 04:33N 34°40' E 135°11'3 3.1
2015-May-27 03:33N 34°38' E 135°09'3 3.3
2015-May-27 02:33N 34°41' E 135°11'0 0.0
2015-May-26 12:28N 34°41' E 135°11'3 3.1
2015-May-26 11:33N 34°38' E 135°11'2 2.1
2015-May-26 10:33N 34°40' E 135°11'1 0.8
2015-May-26 09:33N 34°39' E 135°11'1 0.7
2015-May-26 08:33N 34°39' E 135°11'2 2.0
2015-May-26 07:30N 34°41' E 135°11'3 3.4
2015-May-26 06:34N 34°38' E 135°09'3 2.8
2015-May-26 05:25N 34°41' E 135°11'1 1.0
2015-May-26 04:33N 34°40' E 135°12'3 2.8
2015-May-26 03:33N 34°38' E 135°10'3 0.4
2015-May-25 20:28N 34°41' E 135°11'0 0.0
2015-May-25 19:28N 34°41' E 135°11'0 0.0
2015-May-25 18:28N 34°41' E 135°11'0 0.0
2015-May-25 17:28N 34°41' E 135°11'0 0.0
2015-May-25 16:28N 34°41' E 135°11'0 0.0
2015-May-25 15:28N 34°41' E 135°11'0 0.0
2015-May-25 14:28N 34°41' E 135°11'0 0.0
2015-May-25 13:28N 34°41' E 135°11'0 0.0
2015-May-25 12:28N 34°41' E 135°11'3 3.2
2015-May-25 11:33N 34°38' E 135°11'2 2.0
2015-May-25 10:33N 34°40' E 135°11'0 0.4
2015-May-25 09:33N 34°39' E 135°11'1 1.1
2015-May-25 08:33N 34°39' E 135°11'2 2.1
2015-May-25 07:28N 34°41' E 135°11'3 3.6
2015-May-25 06:33N 34°38' E 135°09'3 3.3
2015-May-25 05:33N 34°41' E 135°11'0 0.4
2015-May-25 04:33N 34°40' E 135°11'3 3.4
2015-May-25 03:33N 34°38' E 135°09'1 0.1
2015-May-24 11:33N 34°38' E 135°11'2 2.0
2015-May-24 10:33N 34°40' E 135°11'1 0.7
2015-May-24 09:33N 34°39' E 135°11'1 0.8
2015-May-24 08:33N 34°39' E 135°11'2 2.1
2015-May-24 07:30N 34°41' E 135°11'3 3.4
2015-May-24 06:33N 34°38' E 135°09'3 3.2
2015-May-24 05:33N 34°41' E 135°11'0 0.3
2015-May-24 04:33N 34°41' E 135°11'3 3.4
2015-May-24 03:33N 34°38' E 135°09'1 0.1
2015-May-23 11:34N 34°38' E 135°11'2 1.8
2015-May-23 10:34N 34°40' E 135°11'0 0.1
2015-May-23 09:34N 34°40' E 135°11'1 1.1
2015-May-23 08:33N 34°39' E 135°11'2 2.1
2015-May-23 07:29N 34°41' E 135°11'3 3.7
2015-May-23 06:33N 34°38' E 135°09'3 3.4
2015-May-23 05:33N 34°41' E 135°11'0 0.4
2015-May-23 04:33N 34°40' E 135°11'3 3.1
2015-May-23 03:33N 34°38' E 135°09'3 3.1
2015-May-23 02:29N 34°41' E 135°11'0 0.0
2015-May-23 01:23N 34°41' E 135°11'0 0.0
2015-May-23 00:29N 34°41' E 135°11'0 0.0
2015-May-22 23:23N 34°41' E 135°11'0 0.0
2015-May-22 22:29N 34°41' E 135°11'0 0.0
2015-May-22 21:29N 34°41' E 135°11'0 0.0
2015-May-22 20:17N 34°41' E 135°11'0 0.0
2015-May-22 19:29N 34°41' E 135°11'0 0.0
2015-May-22 18:29N 34°41' E 135°11'0 0.0
2015-May-22 17:23N 34°41' E 135°11'0 0.0
2015-May-22 16:29N 34°41' E 135°11'0 0.0
2015-May-22 15:23N 34°41' E 135°11'0 0.0
2015-May-22 14:23N 34°41' E 135°11'0 0.0
2015-May-22 13:29N 34°41' E 135°11'0 0.0
2015-May-22 12:29N 34°41' E 135°11'3 3.1
2015-May-22 11:33N 34°38' E 135°10'2 2.0
2015-May-22 10:33N 34°40' E 135°11'1 0.8
2015-May-22 09:33N 34°39' E 135°11'1 0.6
2015-May-22 08:33N 34°39' E 135°11'2 2.1
2015-May-22 07:31N 34°41' E 135°11'3 3.2
2015-May-22 06:33N 34°38' E 135°10'3 3.1
2015-May-22 05:32N 34°41' E 135°11'1 0.7
2015-May-22 04:33N 34°40' E 135°12'2 2.4
2015-May-22 03:33N 34°38' E 135°10'3 2.5
2015-May-22 02:30N 34°41' E 135°11'0 0.0
2015-May-22 01:30N 34°41' E 135°11'0 0.0
2015-May-22 00:24N 34°41' E 135°11'0 0.0
2015-May-21 23:30N 34°41' E 135°11'0 0.0
2015-May-21 22:30N 34°41' E 135°11'0 0.0
2015-May-21 21:12N 34°41' E 135°11'0 0.0
2015-May-21 20:30N 34°41' E 135°11'0 0.0
2015-May-21 19:30N 34°41' E 135°11'0 0.0
2015-May-21 18:30N 34°41' E 135°11'0 0.0
2015-May-21 17:30N 34°41' E 135°11'0 0.0
2015-May-21 16:30N 34°41' E 135°11'0 0.0
2015-May-21 15:30N 34°41' E 135°11'0 0.0
2015-May-21 14:30N 34°41' E 135°11'0 0.0
2015-May-21 13:30N 34°41' E 135°11'0 0.0
2015-May-21 12:30N 34°41' E 135°11'3 3.2
2015-May-21 11:33N 34°38' E 135°11'2 2.1
2015-May-21 10:33N 34°40' E 135°11'1 0.8
2015-May-21 09:33N 34°39' E 135°11'1 0.7
2015-May-21 08:34N 34°39' E 135°11'2 2.2
2015-May-21 07:31N 34°41' E 135°11'3 3.4
2015-May-21 06:33N 34°38' E 135°09'3 3.3
2015-May-21 05:33N 34°41' E 135°11'0 0.4
2015-May-21 04:33N 34°40' E 135°11'3 2.9
2015-May-21 03:33N 34°38' E 135°09'3 2.9
2015-May-21 02:32N 34°41' E 135°11'0 0.0
2015-May-21 01:32N 34°41' E 135°11'0 0.0
2015-May-21 00:32N 34°41' E 135°11'0 0.0
2015-May-20 23:26N 34°41' E 135°11'0 0.0
2015-May-20 22:32N 34°41' E 135°11'0 0.0
2015-May-20 21:32N 34°41' E 135°11'0 0.0
2015-May-20 20:32N 34°41' E 135°11'0 0.0
2015-May-20 19:32N 34°41' E 135°11'0 0.0
2015-May-20 18:32N 34°41' E 135°11'0 0.0
2015-May-20 17:32N 34°41' E 135°11'0 0.0
2015-May-20 16:26N 34°41' E 135°11'0 0.0
2015-May-20 15:32N 34°41' E 135°11'0 0.0
2015-May-20 14:32N 34°41' E 135°11'0 0.0
2015-May-20 13:32N 34°41' E 135°11'0 0.0
2015-May-20 12:32N 34°41' E 135°11'3 3.2
2015-May-20 11:33N 34°38' E 135°10'2 2.1
2015-May-20 10:33N 34°40' E 135°11'0 0.5
2015-May-20 09:33N 34°39' E 135°11'1 1.0
2015-May-20 08:33N 34°38' E 135°11'2 2.3
2015-May-20 07:32N 34°41' E 135°11'3 3.0
2015-May-20 06:33N 34°38' E 135°10'3 2.7
2015-May-20 05:29N 34°41' E 135°11'0 0.5
2015-May-20 04:33N 34°40' E 135°11'3 2.7
2015-May-20 03:33N 34°38' E 135°10'1 0.1
2015-May-19 11:33N 34°38' E 135°11'2 1.7
2015-May-19 10:33N 34°40' E 135°11'0 0.4
2015-May-19 09:33N 34°39' E 135°11'1 1.1
2015-May-19 08:33N 34°39' E 135°11'2 2.0
2015-May-19 07:22N 34°41' E 135°11'3 3.8
2015-May-19 06:33N 34°38' E 135°09'3 3.2
2015-May-19 05:33N 34°41' E 135°11'1 0.5
2015-May-19 04:32N 34°40' E 135°11'3 3.1
2015-May-19 03:33N 34°38' E 135°09'  

Dump ship's entire track history